Pagina principale
METAR-TAF:

METAR-TAF

Aeroporti :

Narsarsuaq, Groenlandia

latitudine: 61-10N, longitudine: 045-25W, altezza: 34 m

Osservazione

Il bollettino è stato emesso 14 minuti fa, alle 18:50 UTC
Vento 7 kt da sud-ovest, variando fra sud/sud-ovest e ovest
Temperature 16°C
Umidità 45%
Pressione 1010 hPa
Visibilità 10 km o più
Poco nuvoloso ad un'altezza di 24000 ft

METAR: BGBW 191850Z 23007KT 200V270 9999 FEW240 16/04 Q1010

Ora: 17:04 (19:04 UTC)

Previsione

Il bollettino è stato emesso 4 ore e 56 minuti fa, alle 14:08 UTC
Previsione valida dal 19 alle 15 UTC al 19 alle 19 UTC
Vento 8 kt da ovest/sud-ovest
Visibilità 10 km o più
Poco nuvoloso ad un'altezza di 100 ft

TAF: BGBW 191408Z 1915/1919 24008KT 9999 FEW001

Osservazioni e previsioni meteorologiche di più di 4000 aeroporti (messaggi METAR e TAF).

Le stazioni disponibili sono rappresentate dai dischi gialli e rossi sulla carta.

Puntare il mouse per vedere il nome della stazione.

Clicca sopra per visualizzare le osservazioni e previsioni meteorologiche.

Per cambiare la mappa : fare clic sui pulsanti verdi con una croce nera per ingrandire, il pulsante verde con un trattino per diminuire, o sulla freccia verde per le mappe adiacenti.


METAR-TAF: